Time;durP1;ratioP1;P1;durP2;ratioP2;P2;SDS_P1;SDS_P2;PMS_P1;PMS_P2;Temp;Humidity;BMP_temperature;BMP_pressure;BME280_temperature;BME280_humidity;BME280_pressure;Samples;Min_cycle;Max_cycle;Signal;HPM_P1;HPM_P2
2022/11/30 00:01:51;;;;;;;74.72;38.92;;;;;;;8.50;81.83;102162.25;5036543;28;20036;-61
2022/11/30 00:04:16;;;;;;;68.50;39.35;;;;;;;8.51;81.43;102174.19;5041977;28;20032;-61
2022/11/30 00:06:41;;;;;;;72.53;38.70;;;;;;;8.51;81.65;102163.97;5029945;28;20034;-62
2022/11/30 00:09:07;;;;;;;73.60;40.25;;;;;;;8.48;81.82;102169.91;5029482;28;20393;-61
2022/11/30 00:11:32;;;;;;;72.60;40.83;;;;;;;8.51;82.08;102169.50;5028809;28;20026;-61
2022/11/30 00:14:00;;;;;;;74.95;40.75;;;;;;;8.52;81.52;102171.19;5024541;28;20360;-61
2022/11/30 00:16:26;;;;;;;70.47;39.65;;;;;;;8.51;81.71;102177.78;5031411;28;20491;-61
2022/11/30 00:18:51;;;;;;;68.68;39.78;;;;;;;8.52;81.33;102171.19;5040163;28;20049;-61
2022/11/30 00:21:17;;;;;;;71.45;38.63;;;;;;;8.51;81.78;102169.50;5028994;28;20033;-61
2022/11/30 00:23:44;;;;;;;70.45;37.83;;;;;;;8.53;81.83;102164.63;5027105;28;20037;-61
2022/11/30 00:26:15;;;;;;;74.93;40.88;;;;;;;8.51;81.74;102166.72;5045496;28;20040;-61
2022/11/30 00:28:42;;;;;;;69.53;39.63;;;;;;;8.52;81.33;102165.66;5033951;28;20060;-61
2022/11/30 00:31:15;;;;;;;66.22;38.80;;;;;;;8.46;81.45;102158.19;5042178;28;20393;-60
2022/11/30 00:33:41;;;;;;;69.13;38.28;;;;;;;8.52;81.37;102171.19;5045229;28;20037;-61
2022/11/30 00:36:15;;;;;;;71.28;38.17;;;;;;;8.54;81.37;102179.31;5035643;28;20752;-61
2022/11/30 00:38:41;;;;;;;66.60;38.00;;;;;;;8.53;81.23;102175.69;5039494;28;20120;-61
2022/11/30 00:41:06;;;;;;;71.78;38.88;;;;;;;8.52;81.44;102173.97;5043839;28;20112;-61
2022/11/30 00:43:31;;;;;;;70.40;38.63;;;;;;;8.53;81.52;102185.91;5044068;28;20094;-61
2022/11/30 00:45:57;;;;;;;67.13;38.03;;;;;;;8.52;81.31;102173.09;5034574;28;20025;-61
2022/11/30 00:48:23;;;;;;;68.97;39.80;;;;;;;8.54;81.98;102180.16;5033759;28;20491;-61
2022/11/30 00:50:48;;;;;;;67.85;38.00;;;;;;;8.54;81.73;102184.84;5026216;28;20041;-61
2022/11/30 00:53:14;;;;;;;70.80;37.55;;;;;;;8.53;81.78;102178.44;5032624;28;20461;-61
2022/11/30 00:55:41;;;;;;;63.45;36.35;;;;;;;8.55;81.44;102181.00;5032150;28;20026;-61
2022/11/30 00:58:06;;;;;;;69.93;36.58;;;;;;;8.54;81.84;102182.91;5032441;28;20108;-61
2022/11/30 01:00:32;;;;;;;60.65;34.55;;;;;;;8.54;81.06;102177.38;5028804;28;20608;-61
2022/11/30 01:03:01;;;;;;;70.18;36.47;;;;;;;8.53;81.69;102178.44;5032039;28;20029;-61
2022/11/30 01:05:27;;;;;;;66.05;34.72;;;;;;;8.53;81.39;102184.00;5043358;28;20025;-61
2022/11/30 01:07:52;;;;;;;64.20;36.22;;;;;;;8.54;81.74;102184.84;5036270;28;20030;-61
2022/11/30 01:10:17;;;;;;;66.63;34.83;;;;;;;8.51;81.32;102186.09;5043379;28;20025;-60
2022/11/30 01:12:42;;;;;;;60.97;34.72;;;;;;;8.53;81.22;102185.91;5045375;28;20022;-60
2022/11/30 01:15:08;;;;;;;61.67;33.80;;;;;;;8.53;81.95;102194.22;5041033;28;20396;-60
2022/11/30 01:17:34;;;;;;;60.33;35.28;;;;;;;8.54;81.63;102185.69;5035539;28;20044;-60
2022/11/30 01:19:59;;;;;;;61.53;33.00;;;;;;;8.56;81.41;102183.56;5029599;28;20030;-60
2022/11/30 01:22:24;;;;;;;56.47;32.90;;;;;;;8.57;81.79;102176.97;5012236;28;20068;-60
2022/11/30 01:24:50;;;;;;;52.50;30.90;;;;;;;8.57;81.36;102176.97;5012021;28;20030;-61
2022/11/30 01:27:15;;;;;;;53.85;31.70;;;;;;;8.58;81.28;102186.13;5011166;28;20041;-61
2022/11/30 01:29:40;;;;;;;55.42;31.20;;;;;;;8.55;81.17;102184.63;5020643;28;20042;-61
2022/11/30 01:32:05;;;;;;;54.05;30.83;;;;;;;8.59;81.40;102187.81;5012387;28;20040;-61
2022/11/30 01:34:31;;;;;;;54.38;31.15;;;;;;;8.57;81.43;102185.28;5020270;28;20112;-61
2022/11/30 01:36:56;;;;;;;52.70;31.02;;;;;;;8.59;81.12;102188.69;5032005;28;20064;-61
2022/11/30 01:39:24;;;;;;;56.35;30.75;;;;;;;8.56;81.42;102191.00;5016262;28;20041;-61
2022/11/30 01:41:49;;;;;;;55.45;31.48;;;;;;;8.55;81.24;102179.09;5010207;28;20033;-61
2022/11/30 01:44:15;;;;;;;50.40;30.17;;;;;;;8.57;81.72;102193.59;5029018;28;20479;-61
2022/11/30 01:46:55;;;;;;;51.92;29.88;;;;;;;8.59;81.67;102185.06;5042581;28;20040;-61
2022/11/30 01:49:35;;;;;;;52.97;29.98;;;;;;;8.55;81.41;102187.38;5025655;28;20029;-61
2022/11/30 01:52:06;;;;;;;53.83;30.30;;;;;;;8.55;81.40;102187.38;5029320;28;20025;-61
2022/11/30 01:54:41;;;;;;;55.20;30.65;;;;;;;8.56;80.99;102199.31;5029480;28;20143;-61
2022/11/30 01:57:31;;;;;;;51.28;29.02;;;;;;;8.53;81.64;102200.59;5034047;28;20060;-61
2022/11/30 02:00:00;;;;;;;49.25;29.30;;;;;;;8.51;81.62;102201.84;5022897;28;20804;-60
2022/11/30 02:02:54;;;;;;;47.03;27.40;;;;;;;8.56;81.78;102207.59;5041036;28;20435;-61
2022/11/30 02:05:23;;;;;;;51.60;27.48;;;;;;;8.50;81.71;102212.06;5044556;28;20111;-60
2022/11/30 02:07:48;;;;;;;48.00;27.85;;;;;;;8.53;81.24;102213.59;5035164;28;20060;-61
2022/11/30 02:10:16;;;;;;;46.30;27.58;;;;;;;8.54;81.17;102209.75;5032002;28;20101;-61
2022/11/30 02:13:00;;;;;;;43.72;27.40;;;;;;;8.56;81.70;102200.16;5039934;28;20032;-61
2022/11/30 02:15:32;;;;;;;42.10;27.50;;;;;;;8.51;80.96;102205.47;5045558;28;20024;-61
2022/11/30 02:18:06;;;;;;;47.28;25.75;;;;;;;8.54;81.44;102216.13;5030669;28;20741;-61
2022/11/30 02:20:52;;;;;;;41.65;26.58;;;;;;;8.53;81.28;102211.66;5039026;28;20087;-61
2022/11/30 02:24:02;;;;;;;39.03;25.90;;;;;;;8.54;81.14;102201.44;5045966;28;20036;-61
2022/11/30 02:27:10;;;;;;;41.05;24.73;;;;;;;8.58;80.98;102203.59;5025933;28;20026;-60
2022/11/30 02:29:54;;;;;;;37.58;24.27;;;;;;;8.53;81.34;102210.81;5027757;28;20515;-60
2022/11/30 02:32:27;;;;;;;36.83;23.10;;;;;;;8.56;81.45;102210.38;5039141;28;20037;-61
2022/11/30 02:34:56;;;;;;;37.67;24.90;;;;;;;8.52;80.93;102207.16;5036480;28;20095;-60
2022/11/30 02:37:24;;;;;;;33.45;22.55;;;;;;;8.53;81.11;102213.59;5030004;28;20041;-61
2022/11/30 02:39:49;;;;;;;38.35;23.92;;;;;;;8.51;81.43;102212.91;5037823;28;20057;-60
2022/11/30 02:42:15;;;;;;;33.53;22.83;;;;;;;8.52;80.70;102215.47;5039538;28;20069;-61
2022/11/30 02:44:49;;;;;;;36.22;23.85;;;;;;;8.53;81.12;102210.81;5034072;28;20377;-61
2022/11/30 02:47:18;;;;;;;31.67;23.25;;;;;;;8.52;80.91;102217.38;5045411;28;20078;-61
2022/11/30 02:50:09;;;;;;;38.90;23.17;;;;;;;8.56;81.41;102222.28;5037512;28;20163;-60
2022/11/30 02:52:34;;;;;;;34.72;22.13;;;;;;;8.51;80.83;102213.75;5036629;28;20120;-61
2022/11/30 02:55:06;;;;;;;31.80;22.55;;;;;;;8.51;81.27;102218.44;5044141;28;20100;-60
2022/11/30 02:57:32;;;;;;;34.50;21.52;;;;;;;8.52;81.44;102220.16;5033506;28;20029;-61
2022/11/30 03:00:00;;;;;;;33.85;22.90;;;;;;;8.49;80.97;102221.44;5043546;28;20031;-61
2022/11/30 03:02:25;;;;;;;33.65;22.67;;;;;;;8.50;80.80;102217.59;5030128;28;20025;-61
2022/11/30 03:04:50;;;;;;;30.33;22.00;;;;;;;8.51;81.05;102215.69;5029742;28;20036;-60
2022/11/30 03:07:15;;;;;;;33.30;22.55;;;;;;;8.50;81.15;102223.13;5029585;28;20482;-61
2022/11/30 03:09:41;;;;;;;28.27;21.35;;;;;;;8.50;81.30;102223.13;5017906;28;20034;-61
2022/11/30 03:12:06;;;;;;;36.17;22.50;;;;;;;8.49;81.12;102224.19;5009900;28;20038;-61
2022/11/30 03:14:31;;;;;;;29.85;21.77;;;;;;;8.51;81.10;102219.31;5025000;28;20532;-61
2022/11/30 03:16:56;;;;;;;29.27;21.92;;;;;;;8.49;80.56;102221.44;5010318;28;20095;-60
2022/11/30 03:19:22;;;;;;;31.52;21.50;;;;;;;8.48;80.58;102222.47;5009841;28;20026;-61
2022/11/30 03:21:47;;;;;;;30.50;20.65;;;;;;;8.48;81.02;102224.38;5024945;28;20381;-61
2022/11/30 03:24:13;;;;;;;34.15;22.02;;;;;;;8.48;80.99;102222.47;5042998;28;20135;-61
2022/11/30 03:26:38;;;;;;;28.02;20.20;;;;;;;8.48;81.07;102221.63;5040961;28;20053;-61
2022/11/30 03:29:03;;;;;;;32.50;20.65;;;;;;;8.47;80.76;102223.53;5027422;28;20033;-61
2022/11/30 03:31:29;;;;;;;32.78;20.88;;;;;;;8.48;81.23;102222.47;5044399;28;20033;-61
2022/11/30 03:33:54;;;;;;;28.30;20.33;;;;;;;8.48;81.00;102227.16;5031762;28;20371;-61
2022/11/30 03:36:19;;;;;;;31.38;21.52;;;;;;;8.45;80.55;102222.91;5043974;28;20549;-61
2022/11/30 03:38:46;;;;;;;30.25;21.13;;;;;;;8.46;80.98;102215.47;5028910;28;20037;-61
2022/11/30 03:41:15;;;;;;;28.10;20.55;;;;;;;8.47;80.85;102223.53;5041394;28;20048;-61
2022/11/30 03:43:40;;;;;;;29.67;19.45;;;;;;;8.44;80.99;102223.94;5030247;28;20091;-61
2022/11/30 03:46:05;;;;;;;29.20;20.50;;;;;;;8.45;80.64;102220.16;5045975;28;20025;-61
2022/11/30 03:48:31;;;;;;;25.50;20.27;;;;;;;8.44;80.38;102221.19;5026324;28;20397;-61
2022/11/30 03:50:56;;;;;;;28.85;20.83;;;;;;;8.43;80.24;102227.78;5030497;28;20083;-61
2022/11/30 03:53:23;;;;;;;25.48;18.02;;;;;;;8.41;80.49;102223.50;5043302;28;20439;-61
2022/11/30 03:55:54;;;;;;;27.83;20.23;;;;;;;8.43;80.90;102221.41;5031872;28;20021;-61
2022/11/30 03:58:19;;;;;;;29.45;20.17;;;;;;;8.41;80.88;102232.69;5043884;28;20420;-61
2022/11/30 04:00:44;;;;;;;31.23;20.27;;;;;;;8.40;80.77;102228.19;5027517;28;20029;-61
2022/11/30 04:03:10;;;;;;;27.48;20.23;;;;;;;8.40;80.40;102228.19;5040781;28;20029;-60
2022/11/30 04:05:35;;;;;;;27.60;20.45;;;;;;;8.43;80.97;102233.31;5051067;28;20029;-60
2022/11/30 04:08:00;;;;;;;27.80;19.85;;;;;;;8.41;80.85;102229.91;5036611;28;20350;-60
2022/11/30 04:10:26;;;;;;;25.17;19.52;;;;;;;8.40;80.93;102219.03;5045296;28;20052;-60
2022/11/30 04:12:51;;;;;;;29.23;19.77;;;;;;;8.42;80.81;102226.09;5042530;28;20032;-61
2022/11/30 04:15:16;;;;;;;27.15;19.13;;;;;;;8.40;81.02;102228.19;5032718;28;20037;-61
2022/11/30 04:17:42;;;;;;;27.30;19.55;;;;;;;8.40;80.88;102227.34;5033343;28;20114;-61
2022/11/30 04:20:07;;;;;;;27.00;19.17;;;;;;;8.38;81.03;102224.78;5052019;28;20094;-61
2022/11/30 04:22:35;;;;;;;26.67;19.35;;;;;;;8.35;80.95;102226.00;5044683;28;20026;-61
2022/11/30 04:25:01;;;;;;;27.98;19.98;;;;;;;8.38;80.66;102224.78;5042015;28;20139;-61
2022/11/30 04:27:27;;;;;;;32.50;20.08;;;;;;;8.37;81.07;102225.84;5033377;28;20553;-60
2022/11/30 04:29:53;;;;;;;27.70;20.40;;;;;;;8.38;80.63;102223.94;5048374;28;20056;-60
2022/11/30 04:32:18;;;;;;;26.52;19.80;;;;;;;8.39;80.90;102232.00;5022482;28;20470;-61
2022/11/30 04:34:43;;;;;;;30.95;20.35;;;;;;;8.38;80.70;102230.31;5012808;28;20053;-61
2022/11/30 04:37:09;;;;;;;27.52;20.80;;;;;;;8.40;80.61;102233.72;5012271;28;20041;-61
2022/11/30 04:39:34;;;;;;;25.85;19.83;;;;;;;8.36;80.53;102229.63;5016290;28;20465;-61
2022/11/30 04:42:00;;;;;;;26.02;20.55;;;;;;;8.38;80.78;102227.56;5023939;28;20087;-61
2022/11/30 04:44:25;;;;;;;29.98;20.77;;;;;;;8.39;81.04;102231.16;5034967;28;20021;-61
2022/11/30 04:46:50;;;;;;;28.63;20.33;;;;;;;8.38;80.65;102232.22;5032193;28;20037;-61
2022/11/30 04:49:18;;;;;;;27.08;19.92;;;;;;;8.39;80.81;102232.00;5039876;28;20029;-61
2022/11/30 04:51:44;;;;;;;28.60;19.85;;;;;;;8.37;80.32;102239.69;5021871;28;20065;-60
2022/11/30 04:54:09;;;;;;;28.60;19.98;;;;;;;8.37;80.57;102242.44;5013083;28;20111;-60
2022/11/30 04:56:34;;;;;;;28.17;19.33;;;;;;;8.35;80.83;102239.84;5013034;28;20038;-60
2022/11/30 04:59:00;;;;;;;27.05;20.50;;;;;;;8.36;80.92;102235.16;5012202;28;20117;-61
2022/11/30 05:01:26;;;;;;;25.88;19.42;;;;;;;8.33;80.03;102235.56;5020932;28;20091;-61
2022/11/30 05:03:51;;;;;;;24.35;19.15;;;;;;;8.34;80.05;102234.53;5013361;28;20615;-61
2022/11/30 05:06:16;;;;;;;25.60;19.10;;;;;;;8.31;80.48;102240.44;5012177;28;20030;-61
2022/11/30 05:08:42;;;;;;;26.50;19.35;;;;;;;8.30;79.96;102236.00;5012442;28;20112;-61
2022/11/30 05:11:07;;;;;;;26.98;19.77;;;;;;;8.30;80.26;102231.31;5019258;28;20029;-60
2022/11/30 05:13:32;;;;;;;27.02;20.17;;;;;;;8.29;79.93;102237.91;5031765;28;20503;-61
2022/11/30 05:16:00;;;;;;;27.08;19.90;;;;;;;8.28;80.10;102238.94;5032088;28;20021;-61
2022/11/30 05:18:30;;;;;;;26.67;19.15;;;;;;;8.29;79.94;102235.13;5032049;28;20017;-60
2022/11/30 05:20:58;;;;;;;24.52;20.02;;;;;;;8.30;80.68;102236.00;5025961;28;20025;-60
2022/11/30 05:23:23;;;;;;;26.35;19.92;;;;;;;8.29;80.66;102242.56;5028105;28;20037;-61
2022/11/30 05:25:49;;;;;;;26.77;20.05;;;;;;;8.29;80.19;102242.56;5015324;28;20022;-60
2022/11/30 05:28:14;;;;;;;30.48;19.70;;;;;;;8.26;80.33;102248.53;5012608;28;20515;-60
2022/11/30 05:30:43;;;;;;;24.83;19.45;;;;;;;8.25;79.81;102247.66;5014039;28;20037;-61
2022/11/30 05:33:09;;;;;;;26.95;18.10;;;;;;;8.23;80.29;102247.00;5019305;28;20033;-60
2022/11/30 05:35:35;;;;;;;24.23;18.88;;;;;;;8.22;79.58;102248.06;5011884;28;20120;-60
2022/11/30 05:38:01;;;;;;;24.85;18.75;;;;;;;8.20;80.19;102246.56;5012136;28;20026;-61
2022/11/30 05:40:27;;;;;;;23.48;17.83;;;;;;;8.19;79.78;102248.47;5010967;28;20033;-61
2022/11/30 05:42:56;;;;;;;25.45;18.45;;;;;;;8.18;79.50;102257.84;5031277;28;20034;-61
2022/11/30 05:45:21;;;;;;;25.13;18.40;;;;;;;8.16;79.24;102256.31;5041813;28;20471;-61
2022/11/30 05:47:47;;;;;;;23.80;18.52;;;;;;;8.18;79.80;102251.44;5036210;28;20133;-61
2022/11/30 05:50:12;;;;;;;25.05;18.15;;;;;;;8.17;79.57;102260.78;5027722;28;20044;-61
2022/11/30 05:52:37;;;;;;;23.73;17.42;;;;;;;8.16;79.73;102271.00;5035386;28;20064;-61
2022/11/30 05:55:03;;;;;;;25.40;18.63;;;;;;;8.16;80.08;102279.28;5042018;28;20053;-62
2022/11/30 05:57:28;;;;;;;26.20;18.80;;;;;;;8.15;79.80;102272.06;5032715;28;20188;-62
2022/11/30 05:59:53;;;;;;;26.08;19.40;;;;;;;8.15;79.94;102262.91;5030866;28;20036;-61
2022/11/30 06:02:19;;;;;;;27.13;19.52;;;;;;;8.14;79.72;102275.03;5030452;28;20041;-61
2022/11/30 06:04:44;;;;;;;27.63;19.35;;;;;;;8.17;80.10;102277.38;5036488;28;20388;-61
2022/11/30 06:07:10;;;;;;;25.50;19.38;;;;;;;8.16;79.50;102278.44;5041772;28;20034;-62
2022/11/30 06:09:37;;;;;;;25.35;18.67;;;;;;;8.15;79.98;102279.50;5029524;28;20061;-62
2022/11/30 06:12:02;;;;;;;29.65;20.02;;;;;;;8.16;80.18;102281.22;5044742;28;20480;-61
2022/11/30 06:14:27;;;;;;;27.35;21.17;;;;;;;8.15;79.59;102285.03;5040806;28;20082;-62
2022/11/30 06:16:53;;;;;;;25.92;19.13;;;;;;;8.14;79.75;102283.34;5037011;28;20024;-61
2022/11/30 06:19:18;;;;;;;27.27;19.73;;;;;;;8.15;79.94;102277.59;5040626;28;20039;-62
2022/11/30 06:21:43;;;;;;;26.95;19.65;;;;;;;8.15;80.00;102283.13;5034855;28;20409;-62
2022/11/30 06:24:09;;;;;;;29.67;20.95;;;;;;;8.17;80.42;102280.16;5045790;28;20043;-62
2022/11/30 06:26:34;;;;;;;25.23;18.98;;;;;;;8.19;79.79;102286.34;5040056;28;20028;-62
2022/11/30 06:28:59;;;;;;;26.52;19.73;;;;;;;8.15;80.54;102287.81;5042028;28;20079;-62
2022/11/30 06:31:24;;;;;;;25.60;19.80;;;;;;;8.16;80.44;102281.22;5041427;28;20079;-62
2022/11/30 06:33:50;;;;;;;25.65;19.67;;;;;;;8.15;80.28;102283.13;5035477;28;20461;-61
2022/11/30 06:36:24;;;;;;;24.95;18.75;;;;;;;8.16;80.05;102290.34;5027450;28;20030;-62
2022/11/30 06:38:50;;;;;;;27.15;19.70;;;;;;;8.16;80.26;102289.50;5044230;28;20075;-62
2022/11/30 06:41:16;;;;;;;26.17;19.38;;;;;;;8.16;80.07;102289.50;5030399;28;20029;-62
2022/11/30 06:43:41;;;;;;;26.77;19.52;;;;;;;8.14;79.75;102291.63;5040683;28;20036;-62
2022/11/30 06:46:10;;;;;;;24.30;19.30;;;;;;;8.14;80.09;102283.34;5033664;28;20033;-62
2022/11/30 06:48:35;;;;;;;23.90;19.17;;;;;;;8.12;80.34;102281.59;5035624;28;20025;-62
2022/11/30 06:51:03;;;;;;;26.67;18.88;;;;;;;8.12;80.58;102289.91;5039761;28;20026;-62
2022/11/30 06:53:29;;;;;;;27.40;19.88;;;;;;;8.12;80.09;102292.66;5032492;28;20098;-62
2022/11/30 06:55:54;;;;;;;30.05;18.95;;;;;;;8.14;80.40;102294.41;5026728;28;20413;-61
2022/11/30 06:58:19;;;;;;;25.13;19.40;;;;;;;8.12;80.34;102295.44;5033591;28;20655;-61
2022/11/30 07:00:45;;;;;;;28.00;19.30;;;;;;;8.11;80.62;102298.41;5026637;28;20024;-60
2022/11/30 07:03:11;;;;;;;26.85;19.65;;;;;;;8.12;80.18;102305.66;5029451;28;20547;-60
2022/11/30 07:05:44;;;;;;;25.15;19.13;;;;;;;8.10;80.72;102293.94;5035556;28;20029;-60
2022/11/30 07:08:11;;;;;;;29.40;20.17;;;;;;;8.10;80.15;102300.34;5023091;28;20631;-62
2022/11/30 07:10:44;;;;;;;31.35;20.60;;;;;;;8.11;80.60;102313.09;5009571;28;20120;-63
2022/11/30 07:13:14;;;;;;;27.65;20.05;;;;;;;8.11;80.28;102303.94;5015549;28;20087;-61
2022/11/30 07:15:40;;;;;;;26.55;19.75;;;;;;;8.14;80.20;102311.00;5021774;28;20092;-60
2022/11/30 07:18:06;;;;;;;25.35;18.98;;;;;;;8.14;80.41;102299.94;5020956;28;20026;-61
2022/11/30 07:20:32;;;;;;;29.17;19.95;;;;;;;8.14;79.92;102317.38;5023537;28;20115;-61
2022/11/30 07:26:04;;;;;;;25.20;18.73;;;;;;;8.15;80.48;102315.47;5020576;28;20822;-59
2022/11/30 07:28:26;;;;;;;25.08;18.83;;;;;;;8.16;79.45;102329.06;5023575;28;20044;-60
2022/11/30 07:30:51;;;;;;;27.95;20.13;;;;;;;8.15;80.14;102329.28;5026786;28;20041;-59
2022/11/30 07:33:17;;;;;;;24.25;18.90;;;;;;;8.12;80.17;102325.84;5030387;28;20033;-60
2022/11/30 07:35:42;;;;;;;25.60;20.02;;;;;;;8.14;80.50;102327.59;5018603;28;20045;-60
2022/11/30 07:38:07;;;;;;;27.42;19.67;;;;;;;8.16;79.70;102328.22;5035094;28;20044;-60
2022/11/30 07:40:32;;;;;;;25.83;19.48;;;;;;;8.15;80.08;102332.06;5039166;28;20083;-61
2022/11/30 07:42:58;;;;;;;26.58;19.65;;;;;;;8.14;80.03;102339.50;5039817;28;20040;-59
2022/11/30 07:45:23;;;;;;;27.55;20.52;;;;;;;8.14;80.49;102339.50;5040956;28;20131;-60
2022/11/30 07:47:48;;;;;;;26.88;20.80;;;;;;;8.14;80.33;102345.03;5040446;28;20033;-60
2022/11/30 07:50:13;;;;;;;26.27;20.05;;;;;;;8.17;79.84;102346.53;5030246;28;20083;-61
2022/11/30 07:52:39;;;;;;;25.17;19.10;;;;;;;8.15;80.11;102351.41;5031383;28;20140;-60
2022/11/30 07:55:05;;;;;;;27.90;20.13;;;;;;;8.18;79.64;102353.78;5046436;28;20103;-60
2022/11/30 07:57:30;;;;;;;27.27;19.55;;;;;;;8.16;79.84;102348.44;5034886;28;20041;-61
2022/11/30 07:59:55;;;;;;;28.27;20.40;;;;;;;8.17;80.21;102349.28;5035669;28;20079;-61
2022/11/30 08:02:20;;;;;;;32.83;21.23;;;;;;;8.15;80.13;102343.97;5038349;28;20040;-62
2022/11/30 08:04:46;;;;;;;32.05;22.45;;;;;;;8.16;80.32;102345.66;5036584;28;20037;-62
2022/11/30 08:07:11;;;;;;;30.45;21.70;;;;;;;8.19;79.85;102349.97;5034610;28;20057;-61
2022/11/30 08:09:36;;;;;;;29.83;21.65;;;;;;;8.18;80.51;102351.03;5037272;28;20041;-61
2022/11/30 08:12:01;;;;;;;32.53;21.98;;;;;;;8.20;80.40;102359.97;5031940;28;20034;-61
2022/11/30 08:14:27;;;;;;;30.98;22.08;;;;;;;8.20;79.74;102359.97;5030202;28;20029;-61
2022/11/30 08:16:52;;;;;;;28.98;21.05;;;;;;;8.20;80.31;102360.81;5029062;28;20026;-61
2022/11/30 08:19:18;;;;;;;29.30;21.88;;;;;;;8.22;80.25;102368.94;5031263;28;20500;-61
2022/11/30 08:21:43;;;;;;;30.85;22.13;;;;;;;8.20;80.07;102362.72;5030768;28;20040;-60
2022/11/30 08:24:11;;;;;;;33.42;22.25;;;;;;;8.22;80.24;102367.00;5031029;28;20048;-60
2022/11/30 08:26:37;;;;;;;31.35;22.48;;;;;;;8.24;79.85;102370.41;5019814;28;20026;-60
2022/11/30 08:29:02;;;;;;;30.77;22.20;;;;;;;8.23;79.74;102367.88;5025255;28;20022;-60
2022/11/30 08:31:33;;;;;;;31.83;21.58;;;;;;;8.22;80.32;102366.16;5031856;28;20034;-60
2022/11/30 08:34:01;;;;;;;35.15;23.17;;;;;;;8.23;79.77;102371.47;5031246;28;20075;-60
2022/11/30 08:36:28;;;;;;;26.73;20.90;;;;;;;8.25;80.04;102382.34;5029553;28;20032;-59
2022/11/30 08:38:56;;;;;;;28.15;22.05;;;;;;;8.28;80.01;102379.16;5029435;28;20036;-60
2022/11/30 08:41:22;;;;;;;29.77;22.23;;;;;;;8.28;79.95;102376.41;5030240;28;20104;-60
2022/11/30 08:43:49;;;;;;;28.55;20.38;;;;;;;8.30;79.92;102390.91;5026964;28;20079;-60
2022/11/30 08:46:16;;;;;;;27.77;21.38;;;;;;;8.29;80.70;102380.88;5026602;28;20126;-60
2022/11/30 08:48:42;;;;;;;28.75;22.45;;;;;;;8.30;80.04;102386.22;5029764;28;20057;-61
2022/11/30 08:51:11;;;;;;;29.52;21.40;;;;;;;8.29;80.36;102391.94;5028629;28;20064;-60
2022/11/30 08:53:37;;;;;;;28.83;20.50;;;;;;;8.31;80.21;102387.94;5028215;28;20025;-61
2022/11/30 08:56:06;;;;;;;27.88;21.55;;;;;;;8.32;79.90;102386.00;5029773;28;20033;-60
2022/11/30 08:58:33;;;;;;;27.52;21.33;;;;;;;8.30;80.35;102396.44;5029342;28;20029;-60
2022/11/30 09:01:11;;;;;;;30.02;20.77;;;;;;;8.32;79.81;102391.53;5016612;28;20026;-61
2022/11/30 09:03:38;;;;;;;30.17;20.90;;;;;;;8.32;79.81;102388.78;5035430;28;20038;-60
2022/11/30 09:06:12;;;;;;;28.38;20.83;;;;;;;8.34;80.77;102389.44;5034571;28;20028;-60
2022/11/30 09:08:38;;;;;;;28.13;21.73;;;;;;;8.40;80.65;102394.19;5041096;28;20029;-61
2022/11/30 09:11:12;;;;;;;29.60;21.25;;;;;;;8.43;81.06;102399.34;5034134;28;20830;-60
2022/11/30 09:13:38;;;;;;;30.08;22.08;;;;;;;8.47;80.96;102408.09;5045415;28;20034;-61
2022/11/30 09:16:05;;;;;;;28.63;22.02;;;;;;;8.48;80.83;102402.34;5035373;28;20033;-61
2022/11/30 09:18:30;;;;;;;30.42;22.63;;;;;;;8.54;80.39;102401.53;5038399;28;20040;-61
2022/11/30 09:21:00;;;;;;;29.15;22.85;;;;;;;8.58;80.52;102402.00;5035404;28;20025;-61
2022/11/30 09:23:26;;;;;;;32.33;23.45;;;;;;;8.65;81.12;102407.59;5029288;28;20049;-61
2022/11/30 09:25:59;;;;;;;32.97;24.05;;;;;;;8.67;80.22;102411.84;5033014;28;20120;-60
2022/11/30 09:28:25;;;;;;;32.55;24.83;;;;;;;8.72;80.94;102402.94;5039713;28;20033;-61
2022/11/30 09:30:52;;;;;;;36.22;24.95;;;;;;;8.72;80.33;102403.78;5042192;28;20059;-60
2022/11/30 09:33:18;;;;;;;32.65;24.58;;;;;;;8.84;81.06;102404.94;5032142;28;20034;-61
2022/11/30 09:35:43;;;;;;;30.85;23.48;;;;;;;8.95;80.30;102406.28;4986016;28;1038872;-61
2022/11/30 09:38:08;;;;;;;31.95;24.48;;;;;;;8.95;79.70;102409.03;5041977;28;20037;-60
2022/11/30 09:40:37;;;;;;;32.97;23.52;;;;;;;8.98;79.82;102418.88;5039640;28;20043;-60
2022/11/30 09:43:09;;;;;;;34.38;24.98;;;;;;;8.97;79.29;102415.25;5035138;28;20029;-60
2022/11/30 09:45:36;;;;;;;31.95;24.90;;;;;;;8.96;79.78;102424.63;5035750;28;20029;-61
2022/11/30 09:48:17;;;;;;;32.33;24.08;;;;;;;8.96;79.96;102412.66;5041118;28;20075;-61
2022/11/30 09:50:46;;;;;;;34.17;25.38;;;;;;;9.01;79.63;102412.91;5037379;28;20061;-61
2022/11/30 09:53:26;;;;;;;32.25;23.17;;;;;;;9.00;79.89;102414.84;5028437;28;20025;-60
2022/11/30 09:55:53;;;;;;;33.20;24.00;;;;;;;9.03;80.15;102397.78;5029572;28;20035;-61
2022/11/30 09:58:45;;;;;;;33.90;25.98;;;;;;;9.08;79.35;102411.06;5009663;28;20022;-61
2022/11/30 10:01:17;;;;;;;33.80;24.50;;;;;;;9.13;79.55;102416.81;5028371;28;20059;-61
2022/11/30 10:03:42;;;;;;;30.95;24.13;;;;;;;9.19;79.52;102404.91;5021706;28;20120;-62
2022/11/30 10:06:14;;;;;;;34.45;24.40;;;;;;;9.17;79.00;102411.72;5029808;28;20484;-60
2022/11/30 10:09:00;;;;;;;31.70;24.77;;;;;;;9.17;79.10;102406.19;5029974;28;20112;-60
2022/11/30 10:11:51;;;;;;;36.97;25.65;;;;;;;9.26;79.69;102402.16;5030585;28;20038;-60
2022/11/30 10:14:38;;;;;;;30.88;24.67;;;;;;;9.34;79.05;102399.22;5028912;28;20457;-60
2022/11/30 10:17:45;;;;;;;31.70;24.70;;;;;;;9.37;79.06;102395.19;5030142;28;20025;-60
2022/11/30 10:20:51;;;;;;;32.80;25.15;;;;;;;9.43;79.19;102399.88;5029347;28;20103;-60
2022/11/30 10:23:44;;;;;;;35.33;25.38;;;;;;;9.52;79.13;102404.19;5026726;28;20030;-61
2022/11/30 10:26:22;;;;;;;34.08;24.67;;;;;;;9.53;78.28;102406.75;5030100;28;20034;-61
2022/11/30 10:28:54;;;;;;;36.45;26.38;;;;;;;9.55;78.58;102390.78;5029255;28;20034;-61
2022/11/30 10:31:27;;;;;;;36.15;25.30;;;;;;;9.62;78.59;102389.91;5030376;28;20412;-60
2022/11/30 10:33:57;;;;;;;35.40;25.98;;;;;;;9.73;78.41;102395.72;5028125;28;20033;-61
2022/11/30 10:36:36;;;;;;;35.22;25.98;;;;;;;9.83;77.66;102389.78;5028848;28;20504;-61
2022/11/30 10:39:09;;;;;;;34.15;25.42;;;;;;;9.90;77.50;102384.22;5017041;28;20088;-61
2022/11/30 10:41:45;;;;;;;35.42;25.17;;;;;;;9.92;77.15;102382.94;5038553;28;20017;-61
2022/11/30 10:44:16;;;;;;;31.85;24.42;;;;;;;9.91;76.61;102380.41;5037248;28;20352;-61
2022/11/30 10:46:51;;;;;;;31.67;23.23;;;;;;;9.98;74.99;102384.00;5042666;28;20127;-60
2022/11/30 10:49:18;;;;;;;28.33;22.05;;;;;;;9.96;74.38;102384.22;5032570;28;20037;-61
2022/11/30 10:51:49;;;;;;;33.17;22.50;;;;;;;9.92;73.86;102376.56;5042959;28;20465;-61
2022/11/30 10:54:19;;;;;;;29.70;21.88;;;;;;;9.90;73.38;102385.06;5028574;28;20048;-61
2022/11/30 10:56:44;;;;;;;29.27;21.58;;;;;;;9.87;73.59;102376.34;5035911;28;20064;-61
2022/11/30 10:59:26;;;;;;;25.80;19.85;;;;;;;9.83;73.34;102375.91;5043397;28;20990;-61
2022/11/30 11:01:52;;;;;;;26.92;20.92;;;;;;;9.77;72.34;102372.03;5029510;28;20029;-60
2022/11/30 11:04:23;;;;;;;27.20;20.38;;;;;;;9.73;72.40;102373.53;5027425;28;20032;-60
2022/11/30 11:06:56;;;;;;;27.95;20.65;;;;;;;9.73;72.39;102367.13;5027127;28;20048;-61
2022/11/30 11:09:37;;;;;;;29.23;21.05;;;;;;;9.74;73.39;102372.44;5016482;28;20025;-61
2022/11/30 11:12:13;;;;;;;28.27;21.67;;;;;;;9.72;71.25;102371.81;5028260;28;20026;-61
2022/11/30 11:14:39;;;;;;;28.38;20.95;;;;;;;9.74;71.32;102368.81;5026518;28;20397;-62
2022/11/30 11:17:16;;;;;;;25.80;19.83;;;;;;;9.72;71.84;102371.81;5029127;28;20025;-61
2022/11/30 11:19:42;;;;;;;28.40;20.70;;;;;;;9.70;71.19;102370.31;5027662;28;20508;-61
2022/11/30 11:22:22;;;;;;;30.45;20.88;;;;;;;9.71;72.40;102374.81;5028512;28;20129;-62
2022/11/30 11:24:49;;;;;;;29.75;21.70;;;;;;;9.66;72.93;102366.25;5028659;28;20031;-61
2022/11/30 11:27:22;;;;;;;29.35;22.02;;;;;;;9.66;73.04;102369.03;5020569;28;20037;-61